createdAt,value
2017-11-28T00:01:10.402Z,99131.31
2017-11-28T00:03:37.519Z,99136.38
2017-11-28T00:06:04.279Z,99124.95
2017-11-28T00:08:30.735Z,99124.97
2017-11-28T00:10:57.862Z,99120.28
2017-11-28T00:13:25.004Z,99121.02
2017-11-28T00:15:51.354Z,99114.20
2017-11-28T00:18:18.548Z,99108.63
2017-11-28T00:20:44.930Z,99101.90
2017-11-28T00:23:11.364Z,99099.66
2017-11-28T00:25:37.732Z,99109.02
2017-11-28T00:28:04.839Z,99109.37
2017-11-28T00:30:31.225Z,99110.78
2017-11-28T00:32:57.635Z,99105.16
2017-11-28T00:35:24.059Z,99105.09
2017-11-28T00:37:51.225Z,99112.49
2017-11-28T00:40:17.645Z,99107.54
2017-11-28T00:42:44.683Z,99094.34
2017-11-28T00:45:11.809Z,99104.38
2017-11-28T00:47:38.191Z,99095.98
2017-11-28T00:50:04.560Z,99100.48
2017-11-28T00:52:30.906Z,99090.36
2017-11-28T00:54:57.339Z,99101.15
2017-11-28T00:57:23.713Z,99098.08
2017-11-28T00:59:50.048Z,99093.59
2017-11-28T01:02:16.350Z,99090.39
2017-11-28T01:04:42.680Z,99096.09
2017-11-28T01:07:09.057Z,99096.83
2017-11-28T01:09:35.403Z,99090.80
2017-11-28T01:12:01.815Z,99091.75
2017-11-28T01:14:28.150Z,99102.14
2017-11-28T01:16:54.615Z,99093.13
2017-11-28T01:19:20.980Z,99089.22
2017-11-28T01:21:48.126Z,99091.77
2017-11-28T01:24:14.500Z,99086.97
2017-11-28T01:26:40.898Z,99100.45
2017-11-28T01:29:08.042Z,99069.50
2017-11-28T01:31:34.512Z,99082.91
2017-11-28T01:34:00.967Z,99080.84
2017-11-28T01:36:27.304Z,99090.90
2017-11-28T01:38:53.798Z,99089.49
2017-11-28T01:41:20.926Z,99077.33
2017-11-28T01:43:47.285Z,99080.80
2017-11-28T01:46:14.700Z,99080.64
2017-11-28T01:48:41.253Z,99075.88
2017-11-28T01:51:08.405Z,99073.64
2017-11-28T01:53:35.593Z,99073.22
2017-11-28T01:56:02.084Z,99071.16
2017-11-28T01:58:28.586Z,99063.75
2017-11-28T02:00:54.958Z,99054.50
2017-11-28T02:03:23.781Z,99052.44
2017-11-28T02:05:51.429Z,99075.64
2017-11-28T02:08:21.113Z,99060.81
2017-11-28T02:10:52.670Z,99047.61
2017-11-28T02:13:28.748Z,99045.75
2017-11-28T02:16:05.433Z,99039.05
2017-11-28T02:18:43.100Z,99041.16
2017-11-28T02:24:12.039Z,99034.14
2017-11-28T02:44:30.430Z,99022.39
2017-11-28T02:46:56.948Z,99014.98
2017-11-28T02:52:38.423Z,99014.48
2017-11-28T02:55:11.846Z,98926.52
2017-11-28T03:02:00.741Z,98983.33
2017-11-28T03:04:27.112Z,98977.75
2017-11-28T03:06:54.297Z,98987.73
2017-11-28T03:09:34.707Z,98970.58
2017-11-28T03:12:03.938Z,98981.52
2017-11-28T03:14:45.215Z,98974.30
2017-11-28T03:17:12.573Z,98963.98
2017-11-28T03:19:47.797Z,98971.22
2017-11-28T03:22:25.438Z,98970.47
2017-11-28T03:25:30.433Z,98979.31
2017-11-28T03:28:19.506Z,98956.23
2017-11-28T03:31:02.704Z,98954.91
2017-11-28T03:33:29.160Z,98961.67
2017-11-28T03:35:55.573Z,98957.48
2017-11-28T03:38:22.019Z,98949.87
2017-11-28T03:40:48.501Z,98966.36
2017-11-28T03:43:15.609Z,98946.61
2017-11-28T03:45:49.766Z,98953.91
2017-11-28T03:48:17.025Z,98953.73
2017-11-28T03:50:44.327Z,98950.05
2017-11-28T03:53:10.867Z,98933.30
2017-11-28T03:55:45.033Z,98937.02
2017-11-28T03:58:22.334Z,98934.41
2017-11-28T04:01:22.372Z,98907.71
2017-11-28T04:04:05.334Z,98919.02
2017-11-28T04:09:28.980Z,98917.19
2017-11-28T04:12:12.819Z,98914.44
2017-11-28T04:14:58.100Z,98926.11
2017-11-28T04:17:32.131Z,98920.55
2017-11-28T04:23:12.639Z,98909.70
2017-11-28T04:25:52.397Z,98904.98
2017-11-28T04:31:59.014Z,98903.86
2017-11-28T04:34:39.518Z,98908.07
2017-11-28T04:37:31.358Z,98904.85
2017-11-28T04:40:06.997Z,98903.08
2017-11-28T04:49:01.043Z,98908.48
2017-11-28T04:54:33.534Z,98909.70
2017-11-28T04:57:58.815Z,98908.95
2017-11-28T05:00:59.154Z,98906.45
2017-11-28T05:03:32.523Z,98890.28
2017-11-28T05:06:11.124Z,98904.09
2017-11-28T05:08:41.851Z,98897.97
2017-11-28T05:11:31.076Z,98899.11
2017-11-28T05:20:35.549Z,98909.70
2017-11-28T05:30:56.614Z,98911.23
2017-11-28T05:33:48.754Z,98907.62
2017-11-28T05:36:47.352Z,98909.13
2017-11-28T05:39:17.550Z,98912.73
2017-11-28T05:42:00.578Z,98910.01
2017-11-28T05:44:41.064Z,98902.00
2017-11-28T05:47:14.178Z,98909.34
2017-11-28T05:49:41.998Z,98910.48
2017-11-28T05:52:13.723Z,98905.23
2017-11-28T05:54:45.427Z,98907.62
2017-11-28T05:57:18.504Z,98913.61
2017-11-28T05:59:46.950Z,98919.38
2017-11-28T06:02:16.465Z,98908.71
2017-11-28T06:04:45.663Z,98895.83
2017-11-28T06:07:13.656Z,98894.68
2017-11-28T06:09:45.972Z,98895.33
2017-11-28T06:12:15.462Z,98914.20
2017-11-28T06:14:44.243Z,98890.72
2017-11-28T06:17:18.402Z,98890.83
2017-11-28T06:19:50.429Z,98895.37
2017-11-28T06:22:21.506Z,98907.08
2017-11-28T06:24:53.177Z,98896.93
2017-11-28T06:27:20.376Z,98891.73
2017-11-28T06:29:49.603Z,98898.48
2017-11-28T06:32:17.013Z,98903.60
2017-11-28T06:34:46.236Z,98858.93
2017-11-28T06:37:12.975Z,98885.78
2017-11-28T06:39:42.175Z,98886.56
2017-11-28T06:42:22.473Z,98893.31
2017-11-28T06:44:49.731Z,98900.89
2017-11-28T06:47:23.620Z,98899.36
2017-11-28T06:49:50.670Z,98890.51
2017-11-28T06:52:29.316Z,98900.23
2017-11-28T06:54:57.621Z,98904.58
2017-11-28T06:57:26.402Z,98902.90
2017-11-28T07:00:03.902Z,98903.78
2017-11-28T07:02:44.055Z,98908.62
2017-11-28T07:05:12.375Z,98914.70
2017-11-28T07:07:56.264Z,98904.72
2017-11-28T07:20:00.463Z,98910.66
2017-11-28T07:25:50.717Z,98921.69
2017-11-28T07:40:06.596Z,98908.35
2017-11-28T07:46:00.402Z,98914.60
2017-11-28T07:48:27.496Z,98903.87
2017-11-28T07:50:54.993Z,98911.75
2017-11-28T07:53:24.260Z,98913.61
2017-11-28T08:14:07.628Z,98902.81
2017-11-28T08:16:37.942Z,98901.66
2017-11-28T08:24:51.163Z,98894.73
2017-11-28T08:27:19.586Z,98903.55
2017-11-28T08:29:48.647Z,98900.61
2017-11-28T08:32:17.423Z,98898.59
2017-11-28T08:34:46.432Z,98895.94
2017-11-28T08:37:17.341Z,98887.83
2017-11-28T08:39:48.677Z,98891.41
2017-11-28T08:42:27.663Z,98886.41
2017-11-28T08:45:00.113Z,98898.03
2017-11-28T08:47:39.864Z,98897.50
2017-11-28T08:50:13.428Z,98892.52
2017-11-28T08:55:28.243Z,98882.56
2017-11-28T09:19:06.055Z,98890.17
2017-11-28T09:21:39.527Z,98893.27
2017-11-28T09:24:09.111Z,98896.48
2017-11-28T09:26:42.820Z,98888.61
2017-11-28T09:29:13.168Z,98890.53
2017-11-28T09:31:44.716Z,98890.50
2017-11-28T09:36:56.064Z,98882.13
2017-11-28T09:39:27.468Z,98879.56
2017-11-28T09:41:58.367Z,98873.27
2017-11-28T09:44:28.834Z,98875.76
2017-11-28T09:46:58.228Z,98877.26
2017-11-28T09:49:25.753Z,98876.31
2017-11-28T09:51:59.339Z,98884.73
2017-11-28T09:54:32.785Z,98885.34
2017-11-28T09:59:42.698Z,98888.03
2017-11-28T11:36:31.897Z,98863.64
2017-11-28T11:54:40.704Z,98852.38
2017-11-28T11:57:37.004Z,98855.55
2017-11-28T12:40:41.195Z,98833.30
2017-11-28T12:43:13.264Z,98833.05
2017-11-28T12:45:41.969Z,98836.31
2017-11-28T12:48:08.983Z,98832.70
2017-11-28T12:50:36.535Z,98841.14
2017-11-28T12:53:04.651Z,98844.36
2017-11-28T12:55:32.489Z,98846.88
2017-11-28T12:57:59.660Z,98844.08
2017-11-28T13:00:27.562Z,98842.34
2017-11-28T13:02:56.224Z,98848.66
2017-11-28T13:05:23.241Z,98840.47
2017-11-28T13:07:50.305Z,98840.21
2017-11-28T13:10:18.111Z,98839.84
2017-11-28T13:12:45.824Z,98838.53
2017-11-28T13:15:13.013Z,98835.31
2017-11-28T13:17:40.166Z,98834.02
2017-11-28T13:20:08.420Z,98845.02
2017-11-28T13:22:35.670Z,98837.38
2017-11-28T13:25:03.629Z,98838.98
2017-11-28T13:27:30.771Z,98845.95
2017-11-28T13:29:58.329Z,98811.43
2017-11-28T13:32:25.204Z,98846.36
2017-11-28T13:34:53.870Z,98842.31
2017-11-28T13:37:20.732Z,98833.41
2017-11-28T13:39:47.762Z,98854.64
2017-11-28T13:42:16.798Z,98863.34
2017-11-28T13:44:43.792Z,98864.50
2017-11-28T13:47:11.075Z,98858.00
2017-11-28T13:49:38.013Z,98850.77
2017-11-28T13:52:05.018Z,98855.59
2017-11-28T13:54:32.958Z,98853.73
2017-11-28T13:57:00.662Z,98850.26
2017-11-28T13:59:27.937Z,98848.12
2017-11-28T14:01:55.698Z,98844.16
2017-11-28T14:04:23.810Z,98862.72
2017-11-28T14:06:51.408Z,98859.61
2017-11-28T14:09:18.242Z,98862.52
2017-11-28T14:11:45.630Z,98861.53
2017-11-28T14:14:14.053Z,98859.22
2017-11-28T14:16:42.177Z,98863.45
2017-11-28T14:19:09.138Z,98863.44
2017-11-28T14:21:41.081Z,98871.80
2017-11-28T14:24:13.810Z,98864.14
2017-11-28T14:26:47.055Z,98859.45
2017-11-28T14:29:14.618Z,98832.55
2017-11-28T14:31:45.363Z,98873.84
2017-11-28T14:34:12.090Z,98877.73
2017-11-28T14:36:42.807Z,98878.89
2017-11-28T14:39:10.512Z,98879.98
2017-11-28T14:45:01.030Z,98878.80
2017-11-28T14:47:28.658Z,98877.91
2017-11-28T14:49:55.507Z,98873.34
2017-11-28T14:52:22.286Z,98876.88
2017-11-28T14:54:57.952Z,98876.98
2017-11-28T15:05:52.664Z,98873.02
2017-11-28T15:08:25.107Z,98873.37
2017-11-28T15:10:58.524Z,98874.03
2017-11-28T15:16:34.660Z,98876.75
2017-11-28T15:19:10.876Z,98878.80
2017-11-28T15:24:41.079Z,98887.61
2017-11-28T15:27:08.270Z,98880.67
2017-11-28T15:29:35.700Z,98877.31
2017-11-28T15:32:02.168Z,98884.81
2017-11-28T15:34:28.609Z,98882.14
2017-11-28T15:36:55.029Z,98877.48
2017-11-28T15:39:21.473Z,98883.96
2017-11-28T15:41:52.954Z,98878.71
2017-11-28T15:44:20.370Z,98877.41
2017-11-28T15:46:46.895Z,98888.63
2017-11-28T15:49:13.279Z,98884.50
2017-11-28T15:51:39.616Z,98890.13
2017-11-28T15:54:06.130Z,98893.55
2017-11-28T15:56:32.941Z,98895.08
2017-11-28T15:58:59.302Z,98896.86
2017-11-28T16:01:26.516Z,98893.00
2017-11-28T16:03:52.875Z,98886.23
2017-11-28T16:06:22.139Z,98889.33
2017-11-28T16:08:52.998Z,98889.72
2017-11-28T16:11:19.844Z,98894.27
2017-11-28T16:13:46.641Z,98888.55
2017-11-28T16:16:13.451Z,98884.88
2017-11-28T16:18:40.129Z,98877.43
2017-11-28T16:21:06.908Z,98879.47
2017-11-28T16:23:33.709Z,98880.05
2017-11-28T16:26:02.140Z,98834.92
2017-11-28T16:28:29.694Z,98875.00
2017-11-28T16:30:59.792Z,98881.00
2017-11-28T16:33:26.755Z,98881.63
2017-11-28T16:35:53.729Z,98880.76
2017-11-28T16:40:54.940Z,98878.80
2017-11-28T16:43:22.636Z,98877.88
2017-11-28T16:45:49.511Z,98887.36
2017-11-28T16:48:16.381Z,98885.61
2017-11-28T16:50:43.377Z,98879.23
2017-11-28T16:53:18.088Z,98839.55
2017-11-28T16:55:44.982Z,98883.90
2017-11-28T16:58:12.810Z,98877.93
2017-11-28T17:00:39.863Z,98879.20
2017-11-28T17:03:06.597Z,98881.63
2017-11-28T17:05:34.684Z,98882.48
2017-11-28T17:08:10.386Z,98882.89
2017-11-28T17:10:37.310Z,98891.59
2017-11-28T17:13:05.973Z,98838.69
2017-11-28T17:15:32.850Z,98893.48
2017-11-28T17:17:59.846Z,98875.05
2017-11-28T17:20:26.638Z,98884.19
2017-11-28T17:22:53.751Z,98883.01
2017-11-28T17:25:20.749Z,98886.65
2017-11-28T17:27:48.011Z,98888.59
2017-11-28T17:30:15.400Z,98882.58
2017-11-28T17:32:42.109Z,98887.45
2017-11-28T17:35:08.850Z,98894.69
2017-11-28T17:37:35.713Z,98890.66
2017-11-28T17:40:03.278Z,98889.52
2017-11-28T17:42:30.136Z,98892.03
2017-11-28T17:44:57.995Z,98888.30
2017-11-28T17:47:24.737Z,98890.58
2017-11-28T17:49:51.629Z,98886.73
2017-11-28T17:52:18.747Z,98890.58
2017-11-28T17:54:48.129Z,98889.44
2017-11-28T17:57:15.918Z,98888.34
2017-11-28T17:59:44.188Z,98890.17
2017-11-28T18:02:11.649Z,98888.19
2017-11-28T18:04:39.408Z,98887.77
2017-11-28T18:07:10.167Z,98884.96
2017-11-28T18:09:38.208Z,98884.83
2017-11-28T18:12:07.711Z,98884.97
2017-11-28T18:14:34.454Z,98882.91
2017-11-28T18:17:01.320Z,98871.90
2017-11-28T18:19:28.750Z,98870.03
2017-11-28T18:21:55.603Z,98872.75
2017-11-28T18:24:22.778Z,98883.34
2017-11-28T18:26:49.809Z,98872.17
2017-11-28T18:29:24.473Z,98801.52
2017-11-28T18:31:56.725Z,98874.89
2017-11-28T18:34:24.196Z,98881.30
2017-11-28T18:36:51.239Z,98884.95
2017-11-28T18:39:18.211Z,98887.81
2017-11-28T18:41:59.200Z,98896.78
2017-11-28T18:44:26.228Z,98906.58
2017-11-28T18:46:53.180Z,98902.72
2017-11-28T18:49:31.464Z,98901.27
2017-11-28T18:51:59.493Z,98907.67
2017-11-28T18:54:26.314Z,98909.80
2017-11-28T18:56:53.467Z,98911.67
2017-11-28T18:59:21.254Z,98909.65
2017-11-28T19:01:48.277Z,98908.81
2017-11-28T19:04:15.355Z,98908.86
2017-11-28T19:06:43.007Z,98910.64
2017-11-28T19:09:09.930Z,98892.52
2017-11-28T19:11:36.647Z,98866.59
2017-11-28T19:14:03.605Z,98907.64
2017-11-28T19:16:30.908Z,98905.69
2017-11-28T19:21:31.327Z,98914.80
2017-11-28T19:23:59.194Z,98915.73
2017-11-28T19:26:26.423Z,98919.17
2017-11-28T19:28:53.324Z,98916.87
2017-11-28T19:31:22.115Z,98916.88
2017-11-28T19:33:50.030Z,98918.99
2017-11-28T19:36:21.012Z,98913.92
2017-11-28T19:38:48.552Z,98914.34
2017-11-28T19:41:17.863Z,98909.17
2017-11-28T19:43:44.703Z,98903.54
2017-11-28T19:46:16.780Z,98900.62
2017-11-28T19:48:43.621Z,98902.03
2017-11-28T19:51:11.505Z,98905.61
2017-11-28T19:53:38.568Z,98900.22
2017-11-28T19:56:06.702Z,98905.80
2017-11-28T19:58:35.278Z,98899.10
2017-11-28T20:01:07.693Z,98902.13
2017-11-28T20:03:36.972Z,98897.27
2017-11-28T20:06:04.887Z,98894.64
2017-11-28T20:08:31.764Z,98886.89
2017-11-28T20:10:59.778Z,98890.73
2017-11-28T20:13:27.376Z,98876.58
2017-11-28T20:15:54.020Z,98880.94
2017-11-28T20:18:21.026Z,98883.13
2017-11-28T20:20:47.946Z,98884.51
2017-11-28T20:23:15.937Z,98849.53
2017-11-28T20:25:48.487Z,98888.14
2017-11-28T20:28:16.503Z,98884.06
2017-11-28T20:30:57.788Z,98898.84
2017-11-28T20:33:27.192Z,98893.34
2017-11-28T20:35:57.429Z,98890.74
2017-11-28T20:40:58.036Z,98894.27
2017-11-28T20:43:29.350Z,98897.55
2017-11-28T20:45:57.895Z,98895.04
2017-11-28T20:48:25.710Z,98895.34
2017-11-28T20:51:06.072Z,98890.80
2017-11-28T20:53:36.324Z,98890.99
2017-11-28T20:56:04.768Z,98823.53
2017-11-28T20:58:32.186Z,98897.03
2017-11-28T21:01:02.464Z,98890.39
2017-11-28T21:03:31.040Z,98888.45
2017-11-28T21:06:00.235Z,98894.98
2017-11-28T21:08:28.258Z,98892.97
2017-11-28T21:10:55.043Z,98897.88
2017-11-28T21:13:23.734Z,98898.03
2017-11-28T21:15:50.940Z,98895.77
2017-11-28T21:18:22.301Z,98885.03
2017-11-28T21:20:53.292Z,98890.61
2017-11-28T21:23:21.204Z,98889.65
2017-11-28T21:25:51.299Z,98887.07
2017-11-28T21:28:19.536Z,98881.93
2017-11-28T21:30:55.527Z,98889.57
2017-11-28T21:33:23.909Z,98888.84
2017-11-28T21:35:50.836Z,98897.05
2017-11-28T21:38:21.337Z,98892.66
2017-11-28T21:40:48.060Z,98894.56
2017-11-28T21:43:16.045Z,98890.63
2017-11-28T21:45:43.269Z,98889.60
2017-11-28T21:48:10.594Z,98898.57
2017-11-28T21:50:37.376Z,98899.95
2017-11-28T21:53:05.275Z,98899.00
2017-11-28T21:55:32.303Z,98890.30
2017-11-28T21:57:59.123Z,98889.31
2017-11-28T22:00:25.812Z,98889.83
2017-11-28T22:02:53.024Z,98896.78
2017-11-28T22:05:20.427Z,98891.47
2017-11-28T22:07:49.160Z,98890.64
2017-11-28T22:12:58.073Z,98892.26
2017-11-28T22:15:24.969Z,98892.58
2017-11-28T22:17:51.712Z,98903.20
2017-11-28T22:20:19.905Z,98907.87
2017-11-28T22:22:47.694Z,98916.87
2017-11-28T22:25:15.900Z,98918.12
2017-11-28T22:27:43.721Z,98910.59
2017-11-28T22:30:12.087Z,98899.62
2017-11-28T22:32:42.973Z,98908.91
2017-11-28T22:35:10.995Z,98902.37
2017-11-28T22:37:40.553Z,98896.72
2017-11-28T22:40:07.250Z,98901.98
2017-11-28T22:42:35.685Z,98897.22
2017-11-28T22:45:03.945Z,98894.72
2017-11-28T22:47:31.371Z,98885.66
2017-11-28T22:50:00.127Z,98894.74
2017-11-28T22:52:28.363Z,98895.78
2017-11-28T22:54:55.292Z,98897.03
2017-11-28T22:57:23.242Z,98889.72
2017-11-28T22:59:50.439Z,98880.25
2017-11-28T23:02:19.590Z,98886.09
2017-11-28T23:04:48.135Z,98875.36
2017-11-28T23:07:15.962Z,98877.08
2017-11-28T23:09:43.270Z,98886.28
2017-11-28T23:12:10.455Z,98886.87
2017-11-28T23:14:49.610Z,98869.89
2017-11-28T23:17:17.749Z,98869.81
2017-11-28T23:19:44.637Z,98866.77
2017-11-28T23:22:11.329Z,98866.08
2017-11-28T23:24:38.241Z,98866.13
2017-11-28T23:27:07.182Z,98868.16
2017-11-28T23:29:34.200Z,98875.89
2017-11-28T23:32:01.163Z,98870.36
2017-11-28T23:34:28.208Z,98857.78
2017-11-28T23:36:55.459Z,98866.97
2017-11-28T23:39:22.282Z,98865.67
2017-11-28T23:41:49.103Z,98869.31
2017-11-28T23:44:15.864Z,98869.42
2017-11-28T23:46:42.603Z,98874.81
2017-11-28T23:49:10.138Z,98875.28
2017-11-28T23:51:36.799Z,98871.00
2017-11-28T23:54:03.481Z,98862.80
2017-11-28T23:56:30.236Z,98870.00
2017-11-28T23:58:57.781Z,98872.03
